Time;durP1;ratioP1;P1;durP2;ratioP2;P2;SDS_P1;SDS_P2;PMS_P1;PMS_P2;Temp;Humidity;BMP_temperature;BMP_pressure;BME280_temperature;BME280_humidity;BME280_pressure;Samples;Min_cycle;Max_cycle;Signal;HPM_P1;HPM_P2
2022/04/12 00:01:03;;;;;;;6.30;4.80;;;3.70;99.90;;;;;;5052230;28;20476;-58
2022/04/12 00:03:30;;;;;;;4.18;3.70;;;3.70;99.90;;;;;;5043846;28;20055;-57
2022/04/12 00:05:55;;;;;;;7.07;4.65;;;3.60;99.90;;;;;;5032439;28;20026;-58
2022/04/12 00:08:22;;;;;;;5.88;4.18;;;3.50;99.90;;;;;;5030692;28;20040;-56
2022/04/12 00:10:48;;;;;;;5.32;4.60;;;3.40;99.90;;;;;;5031575;28;20473;-55
2022/04/12 00:13:33;;;;;;;6.70;5.15;;;3.30;99.90;;;;;;5030884;28;20586;-58
2022/04/12 00:15:58;;;;;;;5.57;4.75;;;3.20;99.90;;;;;;5032126;28;20037;-57
2022/04/12 00:21:08;;;;;;;5.57;4.80;;;3.10;99.90;;;;;;5033249;28;20396;-58
2022/04/12 00:23:34;;;;;;;11.05;5.03;;;3.00;99.90;;;;;;5031705;28;20033;-57
2022/04/12 00:26:00;;;;;;;5.80;5.18;;;3.00;99.90;;;;;;5047927;28;20067;-58
2022/04/12 00:28:26;;;;;;;5.75;4.43;;;3.00;99.90;;;;;;5036765;28;20022;-59
2022/04/12 00:30:52;;;;;;;8.43;4.32;;;2.90;99.90;;;;;;5032579;28;20478;-55
2022/04/12 00:33:18;;;;;;;6.30;4.72;;;2.90;99.90;;;;;;5051187;28;20069;-57
2022/04/12 00:35:43;;;;;;;10.70;4.65;;;3.00;99.90;;;;;;5051000;28;20063;-57
2022/04/12 00:38:18;;;;;;;6.38;4.57;;;3.00;99.90;;;;;;5050788;28;20044;-57
2022/04/12 00:40:47;;;;;;;6.38;4.65;;;3.00;99.90;;;;;;5035634;28;20029;-55
2022/04/12 00:43:15;;;;;;;8.02;5.00;;;3.00;99.90;;;;;;5031982;28;20044;-57
2022/04/12 00:45:41;;;;;;;5.57;4.38;;;3.00;99.90;;;;;;5031887;28;20021;-57
2022/04/12 00:48:07;;;;;;;7.40;4.82;;;3.00;99.90;;;;;;5051050;28;20091;-58
2022/04/12 00:50:32;;;;;;;6.18;4.55;;;2.90;99.90;;;;;;5051637;28;20021;-58
2022/04/12 00:52:59;;;;;;;9.85;5.07;;;3.00;99.90;;;;;;5051572;28;20473;-57
2022/04/12 00:55:29;;;;;;;6.00;4.43;;;3.00;99.90;;;;;;5044631;28;20034;-58
2022/04/12 00:57:56;;;;;;;8.70;4.80;;;2.90;99.90;;;;;;5034933;28;20055;-58
2022/04/12 01:00:24;;;;;;;8.93;4.72;;;2.90;99.90;;;;;;5050023;28;20029;-58
2022/04/12 01:02:49;;;;;;;5.13;4.38;;;2.90;99.90;;;;;;5039131;28;20025;-57
2022/04/12 01:05:15;;;;;;;5.30;4.70;;;2.90;99.90;;;;;;5047611;28;20187;-57
2022/04/12 01:07:43;;;;;;;8.30;4.47;;;2.90;99.90;;;;;;5049840;28;20029;-57
2022/04/12 01:10:09;;;;;;;10.88;4.75;;;2.80;99.90;;;;;;5051016;28;20036;-57
2022/04/12 01:12:41;;;;;;;5.85;4.70;;;2.80;99.90;;;;;;5048734;28;20036;-58
2022/04/12 01:15:17;;;;;;;8.60;4.57;;;2.70;99.90;;;;;;5048653;28;20102;-55
2022/04/12 01:17:44;;;;;;;7.72;4.32;;;2.60;99.90;;;;;;5050522;28;20032;-57
2022/04/12 01:20:10;;;;;;;5.13;4.63;;;2.60;99.90;;;;;;5049182;28;20030;-58
2022/04/12 01:22:55;;;;;;;5.88;4.65;;;2.60;99.90;;;;;;5051186;28;20025;-55
2022/04/12 01:25:23;;;;;;;6.72;5.47;;;2.50;99.90;;;;;;5049538;28;20025;-58
2022/04/12 01:27:49;;;;;;;5.43;4.93;;;2.40;99.90;;;;;;5038026;28;20049;-57
2022/04/12 01:30:15;;;;;;;8.98;4.97;;;2.40;99.90;;;;;;5044497;28;20037;-58
2022/04/12 01:32:41;;;;;;;9.10;6.00;;;2.40;99.90;;;;;;5047867;28;20069;-62
2022/04/12 01:35:08;;;;;;;6.93;5.25;;;2.40;99.90;;;;;;5030400;28;20053;-56
2022/04/12 01:37:33;;;;;;;6.85;4.55;;;2.40;99.90;;;;;;5030969;28;20036;-56
2022/04/12 01:39:59;;;;;;;10.10;6.00;;;2.40;99.90;;;;;;5030548;28;20021;-58
2022/04/12 01:42:24;;;;;;;6.40;5.03;;;2.40;99.90;;;;;;5031053;28;20411;-57
2022/04/12 01:44:50;;;;;;;7.63;6.15;;;2.40;99.90;;;;;;5031270;28;20032;-58
2022/04/12 01:47:17;;;;;;;8.60;4.70;;;2.30;99.90;;;;;;5030898;28;20026;-57
2022/04/12 01:49:43;;;;;;;6.55;5.28;;;2.20;99.90;;;;;;5031433;28;20040;-58
2022/04/12 01:52:10;;;;;;;5.65;5.15;;;2.10;99.90;;;;;;5032292;28;20525;-57
2022/04/12 01:54:36;;;;;;;7.10;5.57;;;1.90;99.90;;;;;;5031177;28;20400;-57
2022/04/12 01:57:02;;;;;;;7.13;5.90;;;1.80;99.90;;;;;;5032212;28;20030;-55
2022/04/12 01:59:28;;;;;;;5.32;4.90;;;1.80;99.90;;;;;;5042024;28;20072;-57
2022/04/12 02:01:54;;;;;;;6.82;5.18;;;1.90;99.90;;;;;;5050871;28;20061;-55
2022/04/12 02:04:19;;;;;;;9.65;5.18;;;1.90;99.90;;;;;;5050558;28;20376;-58
2022/04/12 02:06:45;;;;;;;8.90;5.38;;;1.80;99.90;;;;;;5036181;28;20029;-57
2022/04/12 02:09:11;;;;;;;5.82;5.22;;;1.70;99.90;;;;;;5030917;28;20465;-58
2022/04/12 02:11:37;;;;;;;7.18;5.72;;;1.60;99.90;;;;;;5030168;28;20513;-57
2022/04/12 02:14:02;;;;;;;7.65;5.30;;;1.60;99.90;;;;;;5029329;28;20068;-57
2022/04/12 02:16:28;;;;;;;7.22;6.22;;;1.50;99.90;;;;;;5031904;28;20034;-57
2022/04/12 02:18:53;;;;;;;10.48;5.40;;;1.50;99.90;;;;;;5031317;28;20033;-57
2022/04/12 02:21:19;;;;;;;10.32;5.75;;;1.60;99.90;;;;;;5030946;28;20068;-57
2022/04/12 02:23:45;;;;;;;10.63;6.03;;;1.60;99.90;;;;;;5029455;28;20113;-54
2022/04/12 02:26:10;;;;;;;6.35;5.30;;;1.60;99.90;;;;;;5033554;28;20088;-57
2022/04/12 02:28:36;;;;;;;8.65;5.13;;;1.50;99.90;;;;;;5043731;28;20473;-58
2022/04/12 02:31:02;;;;;;;16.52;7.80;;;1.50;99.90;;;;;;5034078;28;20473;-55
2022/04/12 02:33:27;;;;;;;6.65;5.55;;;1.50;99.90;;;;;;5046690;28;20664;-57
2022/04/12 02:35:53;;;;;;;5.93;5.30;;;1.50;99.90;;;;;;5035612;28;20112;-58
2022/04/12 02:38:28;;;;;;;13.30;6.40;;;1.50;99.90;;;;;;5032645;28;20617;-57
2022/04/12 02:40:53;;;;;;;14.80;5.65;;;1.40;99.90;;;;;;5042636;28;20033;-58
2022/04/12 02:43:19;;;;;;;11.75;6.38;;;1.40;99.90;;;;;;5051995;28;20119;-56
2022/04/12 02:45:45;;;;;;;20.20;6.43;;;1.40;99.90;;;;;;5053604;28;20055;-56
2022/04/12 02:48:11;;;;;;;8.38;5.93;;;1.50;99.90;;;;;;5052149;28;20021;-55
2022/04/12 02:50:37;;;;;;;8.68;6.05;;;1.40;99.90;;;;;;5053868;28;20052;-57
2022/04/12 02:53:03;;;;;;;6.53;5.38;;;1.40;99.90;;;;;;5036989;28;20041;-57
2022/04/12 02:55:28;;;;;;;17.45;5.95;;;1.40;99.90;;;;;;5051948;28;20119;-58
2022/04/12 02:57:54;;;;;;;7.53;6.15;;;1.40;99.90;;;;;;5051341;28;20059;-55
2022/04/12 03:00:20;;;;;;;10.05;6.18;;;1.50;99.90;;;;;;5041435;28;20361;-56
2022/04/12 03:02:45;;;;;;;9.88;5.38;;;1.50;99.90;;;;;;5051707;28;20028;-58
2022/04/12 03:05:11;;;;;;;7.60;5.68;;;1.40;99.90;;;;;;5034817;28;20664;-55
2022/04/12 03:07:37;;;;;;;11.50;5.55;;;1.40;99.90;;;;;;5034145;28;20057;-55
2022/04/12 03:10:03;;;;;;;7.90;5.00;;;1.30;99.90;;;;;;5033261;28;20377;-51
2022/04/12 03:12:29;;;;;;;8.13;4.88;;;1.30;99.90;;;;;;5033734;28;20125;-59
2022/04/12 03:14:54;;;;;;;5.82;5.00;;;1.40;99.90;;;;;;5034438;28;20493;-59
2022/04/12 03:17:20;;;;;;;5.82;4.72;;;1.30;99.90;;;;;;5033542;28;20083;-57
2022/04/12 03:19:46;;;;;;;6.15;5.55;;;1.20;99.90;;;;;;5034847;28;20104;-58
2022/04/12 03:22:12;;;;;;;6.75;6.07;;;1.20;99.90;;;;;;5032110;28;20472;-58
2022/04/12 03:24:38;;;;;;;18.00;6.07;;;1.20;99.90;;;;;;5033277;28;20029;-58
2022/04/12 03:27:05;;;;;;;12.70;5.85;;;1.10;99.90;;;;;;5032405;28;20018;-57
2022/04/12 03:29:31;;;;;;;7.13;6.30;;;1.10;99.90;;;;;;5047686;28;20025;-58
2022/04/12 03:31:56;;;;;;;11.63;5.63;;;1.00;99.90;;;;;;5052426;28;20037;-57
2022/04/12 03:34:22;;;;;;;16.27;6.30;;;1.00;99.90;;;;;;5053125;28;20036;-57
2022/04/12 03:36:48;;;;;;;6.13;5.13;;;1.00;99.90;;;;;;5052223;28;20032;-56
2022/04/12 03:39:17;;;;;;;8.43;5.07;;;1.10;99.90;;;;;;5033008;28;20494;-57
2022/04/12 03:41:46;;;;;;;5.70;5.13;;;1.10;99.90;;;;;;5033179;28;20039;-58
2022/04/12 03:44:12;;;;;;;7.13;5.80;;;1.00;99.90;;;;;;5033248;28;20057;-57
2022/04/12 03:46:38;;;;;;;5.78;5.22;;;0.90;99.90;;;;;;5032242;28;20358;-57
2022/04/12 03:49:03;;;;;;;6.88;5.28;;;0.90;99.90;;;;;;5031394;28;20087;-54
2022/04/12 03:51:30;;;;;;;8.90;5.20;;;0.80;99.90;;;;;;5031841;28;20048;-57
2022/04/12 03:53:56;;;;;;;9.80;5.72;;;0.70;99.90;;;;;;5031418;28;20384;-58
2022/04/12 03:56:22;;;;;;;7.25;5.70;;;0.70;99.90;;;;;;5031590;28;20037;-56
2022/04/12 03:58:48;;;;;;;8.05;5.82;;;0.70;99.90;;;;;;5040255;28;20086;-59
2022/04/12 04:01:14;;;;;;;7.72;5.43;;;0.70;99.90;;;;;;5046710;28;20489;-58
2022/04/12 04:03:40;;;;;;;12.20;5.75;;;0.70;99.90;;;;;;5035067;28;20563;-58
2022/04/12 04:06:06;;;;;;;6.63;5.38;;;0.70;99.90;;;;;;5030290;28;20025;-57
2022/04/12 04:08:32;;;;;;;11.57;5.97;;;0.60;99.90;;;;;;5029535;28;20104;-58
2022/04/12 04:10:58;;;;;;;11.07;6.53;;;0.60;99.90;;;;;;5029258;28;20432;-57
2022/04/12 04:13:26;;;;;;;12.25;5.65;;;0.60;99.90;;;;;;5028190;28;20025;-56
2022/04/12 04:15:52;;;;;;;9.93;5.78;;;0.60;99.90;;;;;;5032222;28;20136;-58
2022/04/12 04:18:18;;;;;;;14.98;5.47;;;0.60;99.90;;;;;;5030779;28;20108;-58
2022/04/12 04:20:43;;;;;;;16.73;7.22;;;0.60;99.90;;;;;;5032445;28;20060;-57
2022/04/12 04:23:09;;;;;;;11.68;5.50;;;0.60;99.90;;;;;;5030973;28;20389;-58
2022/04/12 04:25:35;;;;;;;14.85;6.10;;;0.50;99.90;;;;;;5036356;28;20499;-57
2022/04/12 04:28:02;;;;;;;18.10;5.60;;;0.60;99.90;;;;;;5047534;28;20421;-56
2022/04/12 04:30:28;;;;;;;8.88;5.38;;;0.50;99.90;;;;;;5031132;28;20048;-58
2022/04/12 04:32:53;;;;;;;13.93;6.00;;;0.50;99.90;;;;;;5040835;28;20020;-56
2022/04/12 04:35:19;;;;;;;14.75;6.88;;;0.50;99.90;;;;;;5037341;28;20068;-58
2022/04/12 04:37:46;;;;;;;12.07;5.88;;;0.50;99.90;;;;;;5037407;28;20025;-57
2022/04/12 04:40:20;;;;;;;14.13;6.63;;;0.60;99.90;;;;;;5045224;28;20041;-58
2022/04/12 04:42:47;;;;;;;9.25;5.82;;;0.60;99.90;;;;;;5032105;28;20602;-58
2022/04/12 04:45:13;;;;;;;8.57;5.75;;;0.60;99.90;;;;;;5031757;28;20515;-58
2022/04/12 04:47:50;;;;;;;7.18;5.78;;;0.60;99.90;;;;;;5031355;28;20030;-57
2022/04/12 04:50:17;;;;;;;9.02;5.93;;;0.60;99.90;;;;;;5038431;28;20072;-56
2022/04/12 04:52:42;;;;;;;10.68;5.85;;;0.60;99.90;;;;;;5051918;28;20039;-57
2022/04/12 04:55:08;;;;;;;9.48;5.50;;;0.70;99.90;;;;;;5051400;28;20029;-58
2022/04/12 04:57:39;;;;;;;17.80;5.80;;;0.70;99.90;;;;;;5050176;28;20040;-58
2022/04/12 05:00:06;;;;;;;11.18;6.20;;;0.80;99.90;;;;;;5031970;28;20038;-57
2022/04/12 05:02:33;;;;;;;12.57;6.03;;;0.90;99.90;;;;;;5035031;28;20053;-59
2022/04/12 05:05:01;;;;;;;17.55;6.88;;;0.90;99.90;;;;;;5049045;28;20033;-58
2022/04/12 05:07:27;;;;;;;12.40;5.68;;;1.00;99.90;;;;;;5031850;28;20045;-58
2022/04/12 05:09:53;;;;;;;9.23;5.28;;;1.00;99.90;;;;;;5049098;28;20053;-58
2022/04/12 05:12:19;;;;;;;6.15;5.45;;;1.00;99.90;;;;;;5051240;28;20550;-58
2022/04/12 05:14:45;;;;;;;11.35;6.13;;;0.90;99.90;;;;;;5050866;28;20048;-58
2022/04/12 05:17:10;;;;;;;6.22;5.63;;;0.90;99.90;;;;;;5049759;28;20175;-58
2022/04/12 05:19:36;;;;;;;13.48;6.10;;;1.00;99.90;;;;;;5049175;28;20608;-57
2022/04/12 05:22:02;;;;;;;7.43;5.40;;;0.90;99.90;;;;;;5049968;28;20065;-58
2022/04/12 05:24:27;;;;;;;15.48;6.57;;;1.10;99.90;;;;;;5050337;28;20124;-57
2022/04/12 05:26:53;;;;;;;12.10;5.70;;;1.00;99.90;;;;;;5050491;28;20029;-58
2022/04/12 05:29:19;;;;;;;24.88;7.97;;;1.10;99.90;;;;;;5037924;28;20029;-58
2022/04/12 05:31:44;;;;;;;22.13;7.35;;;1.30;99.90;;;;;;5043488;28;20364;-58
2022/04/12 05:34:10;;;;;;;10.90;6.47;;;1.50;99.90;;;;;;5031126;28;20497;-58
2022/04/12 05:36:35;;;;;;;7.90;5.43;;;1.70;99.90;;;;;;5040704;28;20029;-58
2022/04/12 05:39:01;;;;;;;6.72;5.80;;;1.90;99.90;;;;;;5050702;28;20028;-58
2022/04/12 05:41:27;;;;;;;12.68;5.65;;;2.20;99.90;;;;;;5050457;28;20025;-58
2022/04/12 05:43:52;;;;;;;10.02;6.78;;;2.30;99.90;;;;;;5051020;28;20056;-58
2022/04/12 05:46:18;;;;;;;15.13;6.75;;;2.50;99.90;;;;;;5049991;28;20116;-58
2022/04/12 05:48:43;;;;;;;6.18;5.57;;;2.60;99.90;;;;;;5050905;28;20021;-57
2022/04/12 05:51:09;;;;;;;9.52;5.38;;;2.80;99.90;;;;;;5036424;28;20045;-57
2022/04/12 05:53:35;;;;;;;13.60;6.05;;;3.00;99.90;;;;;;5031200;28;20036;-57
2022/04/12 05:56:01;;;;;;;7.60;5.55;;;3.10;99.90;;;;;;5043875;28;20025;-58
2022/04/12 05:58:26;;;;;;;10.88;5.68;;;3.20;99.90;;;;;;5049928;28;20453;-58
2022/04/12 06:00:52;;;;;;;12.80;6.85;;;3.40;99.90;;;;;;5053153;28;20063;-57
2022/04/12 06:03:18;;;;;;;7.70;6.30;;;3.40;99.90;;;;;;5053107;28;20109;-58
2022/04/12 06:05:43;;;;;;;11.65;6.32;;;3.50;99.90;;;;;;5036671;28;20018;-58
2022/04/12 06:08:09;;;;;;;8.10;6.07;;;3.60;99.90;;;;;;5034733;28;20083;-58
2022/04/12 06:10:35;;;;;;;14.70;5.82;;;3.70;99.90;;;;;;5053831;28;20037;-58
2022/04/12 06:13:01;;;;;;;9.40;5.78;;;3.80;99.90;;;;;;5053913;28;20098;-58
2022/04/12 06:15:27;;;;;;;7.35;6.28;;;3.90;99.90;;;;;;5054306;28;20044;-57
2022/04/12 06:17:53;;;;;;;9.38;5.88;;;3.90;99.90;;;;;;5054338;28;20025;-58
2022/04/12 06:20:19;;;;;;;9.80;5.70;;;4.00;99.90;;;;;;5052785;28;20033;-57
2022/04/12 06:22:46;;;;;;;9.43;5.05;;;4.10;99.90;;;;;;5054421;28;20617;-59
2022/04/12 06:25:20;;;;;;;7.22;5.97;;;4.10;99.90;;;;;;5047552;28;20029;-58
2022/04/12 06:27:50;;;;;;;12.57;5.40;;;4.20;99.90;;;;;;5034231;28;20021;-58
2022/04/12 06:30:27;;;;;;;6.05;5.35;;;4.30;99.90;;;;;;5040421;28;20597;-56
2022/04/12 06:32:53;;;;;;;5.97;4.95;;;4.40;99.90;;;;;;5054446;28;20021;-58
2022/04/12 06:35:20;;;;;;;8.80;5.60;;;4.50;99.90;;;;;;5054031;28;20052;-58
2022/04/12 06:37:47;;;;;;;9.05;4.82;;;4.50;99.90;;;;;;5036240;28;20372;-59
2022/04/12 06:40:15;;;;;;;7.93;6.53;;;4.60;99.90;;;;;;5035262;28;20026;-59
2022/04/12 06:42:41;;;;;;;9.30;5.60;;;4.60;99.90;;;;;;5034280;28;20022;-58
2022/04/12 06:45:08;;;;;;;6.80;5.47;;;4.70;99.90;;;;;;5039911;28;20071;-56
2022/04/12 06:47:34;;;;;;;6.30;5.07;;;4.80;99.90;;;;;;5053833;28;20029;-58
2022/04/12 06:50:00;;;;;;;12.13;5.75;;;4.90;99.90;;;;;;5053603;28;20031;-57
2022/04/12 06:52:26;;;;;;;5.50;4.75;;;5.00;99.90;;;;;;5054115;28;20115;-57
2022/04/12 06:54:52;;;;;;;10.80;5.13;;;5.10;99.90;;;;;;5048847;28;20022;-57
2022/04/12 06:57:18;;;;;;;7.18;5.13;;;5.20;99.90;;;;;;5033825;28;20030;-57
2022/04/12 06:59:44;;;;;;;6.45;4.63;;;5.20;99.90;;;;;;5033978;28;20516;-57
2022/04/12 07:02:10;;;;;;;14.32;6.35;;;5.30;99.90;;;;;;5034503;28;20091;-58
2022/04/12 07:04:36;;;;;;;6.43;4.75;;;5.40;99.90;;;;;;5050109;28;20029;-58
2022/04/12 07:07:02;;;;;;;7.13;4.38;;;5.60;99.90;;;;;;5037350;28;20033;-57
2022/04/12 07:09:29;;;;;;;14.18;5.85;;;5.70;99.90;;;;;;5033938;28;20033;-55
2022/04/12 07:11:57;;;;;;;5.35;4.25;;;5.90;99.90;;;;;;5036751;28;20035;-55
2022/04/12 07:14:23;;;;;;;8.00;4.35;;;6.10;99.90;;;;;;5050183;28;20041;-58
2022/04/12 07:16:49;;;;;;;13.35;4.57;;;6.20;99.90;;;;;;5053673;28;20060;-56
2022/04/12 07:19:15;;;;;;;7.35;4.47;;;6.30;99.90;;;;;;5053468;28;20056;-57
2022/04/12 07:21:41;;;;;;;5.60;4.30;;;6.40;99.90;;;;;;5051791;28;20025;-57
2022/04/12 07:24:07;;;;;;;5.95;4.50;;;6.40;99.90;;;;;;5053344;28;20357;-58
2022/04/12 07:26:34;;;;;;;7.32;4.35;;;6.60;99.90;;;;;;5053253;28;20025;-57
2022/04/12 07:29:00;;;;;;;5.50;4.28;;;6.90;99.90;;;;;;5053291;28;20039;-58
2022/04/12 07:31:26;;;;;;;5.15;4.65;;;7.00;99.90;;;;;;5051417;28;20025;-59
2022/04/12 07:33:52;;;;;;;7.82;4.40;;;7.10;99.90;;;;;;5044118;28;20025;-57
2022/04/12 07:36:19;;;;;;;8.82;4.97;;;7.20;99.90;;;;;;5035592;28;20112;-58
2022/04/12 07:38:45;;;;;;;4.90;4.40;;;7.30;99.90;;;;;;5040703;28;20036;-57
2022/04/12 07:41:11;;;;;;;6.65;4.90;;;7.50;99.90;;;;;;5040341;28;20030;-58
2022/04/12 07:43:37;;;;;;;10.15;4.97;;;7.60;99.90;;;;;;5049677;28;20024;-58
2022/04/12 07:46:04;;;;;;;7.38;4.63;;;7.80;99.90;;;;;;5052185;28;20037;-57
2022/04/12 07:48:30;;;;;;;9.75;5.75;;;7.90;99.90;;;;;;5051861;28;20448;-58
2022/04/12 07:50:55;;;;;;;5.53;4.20;;;7.90;99.90;;;;;;5052719;28;20477;-57
2022/04/12 07:53:21;;;;;;;8.70;4.03;;;7.90;99.90;;;;;;5052646;28;20040;-56
2022/04/12 07:55:47;;;;;;;7.40;5.03;;;8.00;99.90;;;;;;5052685;28;20036;-55
2022/04/12 07:58:15;;;;;;;7.63;4.07;;;8.20;99.90;;;;;;5052724;28;20029;-52
2022/04/12 08:00:41;;;;;;;6.03;4.68;;;8.40;99.90;;;;;;5051014;28;20495;-57
2022/04/12 08:03:07;;;;;;;7.88;4.03;;;8.40;99.90;;;;;;5046749;28;20113;-58
2022/04/12 08:05:36;;;;;;;7.28;3.67;;;8.60;99.90;;;;;;5052730;28;20052;-58
2022/04/12 08:08:03;;;;;;;9.18;4.15;;;8.70;99.90;;;;;;5052471;28;20047;-58
2022/04/12 08:10:29;;;;;;;4.95;4.43;;;8.90;99.90;;;;;;5044672;28;20024;-58
2022/04/12 08:12:55;;;;;;;6.47;4.53;;;8.90;99.90;;;;;;5035124;28;20040;-58
2022/04/12 08:15:22;;;;;;;7.93;4.22;;;8.90;99.90;;;;;;5051929;28;20094;-56
2022/04/12 08:17:48;;;;;;;12.63;8.82;;;9.20;99.90;;;;;;5050671;28;20116;-55
2022/04/12 08:20:14;;;;;;;8.73;6.95;;;9.30;99.90;;;;;;5052002;28;20100;-57
2022/04/12 08:22:40;;;;;;;10.25;4.82;;;9.40;99.90;;;;;;5050336;28;20021;-58
2022/04/12 08:25:07;;;;;;;9.05;3.50;;;9.70;99.90;;;;;;5051989;28;20029;-57
2022/04/12 08:27:33;;;;;;;7.05;3.53;;;9.70;99.90;;;;;;5046892;28;20025;-58
2022/04/12 08:29:58;;;;;;;13.07;6.78;;;9.90;99.90;;;;;;5044111;28;20029;-59
2022/04/12 08:32:24;;;;;;;7.70;4.35;;;10.00;99.90;;;;;;5052081;28;20025;-58
2022/04/12 08:34:50;;;;;;;11.30;4.20;;;10.20;99.90;;;;;;5051190;28;20094;-59
2022/04/12 08:37:16;;;;;;;6.72;3.90;;;10.20;99.90;;;;;;5050256;28;20546;-58
2022/04/12 08:39:42;;;;;;;5.68;4.50;;;10.30;99.90;;;;;;5039870;28;20552;-58
2022/04/12 08:42:07;;;;;;;5.90;4.47;;;10.30;99.90;;;;;;5050449;28;20100;-58
2022/04/12 08:44:36;;;;;;;8.82;4.15;;;10.40;99.90;;;;;;5034524;28;20021;-57
2022/04/12 08:47:04;;;;;;;6.03;3.45;;;10.40;99.90;;;;;;5050239;28;20029;-58
2022/04/12 08:49:30;;;;;;;6.20;3.60;;;10.60;99.90;;;;;;5050754;28;20544;-57
2022/04/12 08:51:56;;;;;;;11.98;3.50;;;10.70;98.60;;;;;;5031778;28;20033;-58
2022/04/12 08:54:23;;;;;;;8.23;3.33;;;10.90;99.90;;;;;;5031434;28;20037;-59
2022/04/12 08:56:50;;;;;;;6.15;3.20;;;11.10;99.10;;;;;;5031254;28;20095;-58
2022/04/12 08:59:17;;;;;;;4.47;3.72;;;11.30;99.50;;;;;;5032367;28;20110;-58
2022/04/12 09:01:44;;;;;;;9.57;3.20;;;11.40;98.30;;;;;;5037011;28;20480;-57
2022/04/12 09:04:11;;;;;;;5.57;3.80;;;11.60;98.90;;;;;;5051218;28;20074;-58
2022/04/12 09:06:50;;;;;;;7.20;3.35;;;11.70;97.70;;;;;;5045746;28;20492;-58
2022/04/12 09:09:18;;;;;;;3.03;2.50;;;11.80;96.60;;;;;;5031570;28;20183;-58
2022/04/12 09:12:10;;;;;;;4.07;3.20;;;11.90;96.90;;;;;;5031779;28;20509;-58
2022/04/12 09:14:36;;;;;;;8.93;3.17;;;12.10;97.40;;;;;;5041430;28;20120;-57
2022/04/12 09:17:03;;;;;;;3.78;2.78;;;12.20;94.70;;;;;;5037703;28;20121;-56
2022/04/12 09:19:39;;;;;;;5.07;3.40;;;12.10;94.20;;;;;;5031854;28;20053;-56
2022/04/12 09:22:23;;;;;;;7.18;3.45;;;12.00;95.90;;;;;;5031464;28;20040;-53
2022/04/12 09:24:51;;;;;;;7.35;3.60;;;12.30;95.70;;;;;;5033812;28;20037;-57
2022/04/12 09:27:21;;;;;;;7.00;3.65;;;12.30;94.20;;;;;;5049587;28;20052;-57
2022/04/12 09:29:48;;;;;;;4.93;3.53;;;12.30;94.10;;;;;;5051185;28;20029;-58
2022/04/12 09:32:15;;;;;;;5.93;4.20;;;12.40;94.80;;;;;;5032485;28;20118;-58
2022/04/12 09:34:44;;;;;;;4.13;3.30;;;12.50;95.30;;;;;;5031072;28;20552;-58
2022/04/12 09:37:25;;;;;;;5.97;3.97;;;12.60;94.90;;;;;;5031219;28;20709;-58
2022/04/12 09:39:55;;;;;;;8.25;3.70;;;12.70;93.10;;;;;;5031453;28;20029;-58
2022/04/12 09:42:45;;;;;;;6.22;3.63;;;12.60;92.60;;;;;;5041823;28;20477;-59
2022/04/12 09:45:17;;;;;;;6.05;4.15;;;12.50;92.90;;;;;;5045473;28;20033;-58
2022/04/12 09:47:44;;;;;;;4.35;3.58;;;12.70;93.10;;;;;;5047791;28;20527;-58
2022/04/12 09:50:10;;;;;;;5.50;3.55;;;12.90;93.40;;;;;;5030308;28;20034;-58
2022/04/12 09:52:37;;;;;;;5.78;4.18;;;13.10;93.50;;;;;;5048578;28;20025;-58
2022/04/12 09:55:06;;;;;;;5.13;3.95;;;13.20;92.10;;;;;;5050391;28;20468;-58
2022/04/12 09:57:32;;;;;;;5.15;3.97;;;13.20;92.90;;;;;;5049558;28;20028;-58
2022/04/12 09:59:59;;;;;;;35.05;4.93;;;13.40;91.00;;;;;;5049279;28;20025;-58
2022/04/12 10:02:26;;;;;;;10.25;4.20;;;13.80;92.60;;;;;;5051134;28;20095;-58
2022/04/12 10:04:54;;;;;;;8.35;4.45;;;13.90;90.00;;;;;;5049381;28;20024;-58
2022/04/12 10:07:22;;;;;;;5.07;4.05;;;14.00;89.10;;;;;;5031448;28;20018;-58
2022/04/12 10:09:50;;;;;;;5.75;4.47;;;13.90;86.40;;;;;;5031172;28;20029;-58
2022/04/12 10:12:17;;;;;;;6.88;4.57;;;14.10;90.60;;;;;;5031143;28;20056;-58
2022/04/12 10:14:43;;;;;;;6.40;4.28;;;14.30;88.20;;;;;;5012700;28;20282;-59
2022/04/12 10:17:10;;;;;;;9.75;5.05;;;14.50;88.50;;;;;;5018218;28;20052;-59
2022/04/12 10:19:36;;;;;;;13.55;4.57;;;14.50;85.30;;;;;;5021606;28;20025;-59
2022/04/12 10:22:03;;;;;;;8.95;5.50;;;14.70;85.60;;;;;;5023444;28;20503;-59
2022/04/12 10:24:30;;;;;;;7.75;4.40;;;14.60;86.30;;;;;;5021467;28;20049;-59
2022/04/12 10:26:56;;;;;;;6.32;4.85;;;14.90;83.60;;;;;;5021370;28;20072;-59
2022/04/12 10:29:22;;;;;;;6.35;4.55;;;15.20;86.50;;;;;;5022554;28;20105;-59
2022/04/12 10:31:56;;;;;;;8.93;4.72;;;15.30;83.30;;;;;;5021693;28;20413;-59
2022/04/12 10:34:22;;;;;;;9.02;5.57;;;15.60;84.50;;;;;;5021508;28;20033;-59
2022/04/12 10:37:04;;;;;;;4.70;4.10;;;15.50;82.10;;;;;;5041437;28;20679;-59
2022/04/12 10:39:37;;;;;;;7.53;4.20;;;15.80;82.00;;;;;;5022938;28;20076;-59
2022/04/12 10:42:13;;;;;;;9.70;5.10;;;15.80;81.70;;;;;;5022445;28;20137;-59
2022/04/12 10:44:57;;;;;;;6.32;4.53;;;15.80;79.20;;;;;;5021286;28;20029;-59
2022/04/12 10:47:27;;;;;;;8.18;5.38;;;15.90;79.90;;;;;;5023816;28;20694;-59
2022/04/12 10:49:55;;;;;;;5.45;4.50;;;15.90;78.90;;;;;;5024936;28;20028;-59
2022/04/12 10:52:51;;;;;;;6.28;5.15;;;16.20;79.00;;;;;;5025713;28;20025;-59
2022/04/12 10:55:19;;;;;;;7.60;4.40;;;16.30;77.30;;;;;;5023689;28;20057;-59
2022/04/12 10:57:45;;;;;;;9.05;5.68;;;16.20;74.30;;;;;;5023976;28;20061;-59
2022/04/12 11:00:12;;;;;;;16.48;5.53;;;16.00;72.60;;;;;;5025739;28;20029;-59
2022/04/12 11:02:45;;;;;;;18.33;5.25;;;16.30;76.40;;;;;;5026250;28;20084;-59
2022/04/12 11:05:32;;;;;;;8.05;4.85;;;16.40;74.80;;;;;;5027295;28;20029;-58
2022/04/12 11:07:58;;;;;;;7.72;4.63;;;16.50;73.20;;;;;;5033728;28;20144;-58
2022/04/12 11:10:24;;;;;;;7.97;5.05;;;16.90;74.70;;;;;;5034865;28;20032;-58
2022/04/12 11:13:03;;;;;;;7.20;5.10;;;17.10;75.00;;;;;;5033595;28;20052;-58
2022/04/12 11:15:32;;;;;;;9.18;5.60;;;17.40;72.90;;;;;;5033515;28;20116;-59
2022/04/12 11:18:20;;;;;;;9.50;5.57;;;17.80;67.50;;;;;;5035564;28;20358;-58
2022/04/12 11:20:59;;;;;;;7.57;4.13;;;17.70;65.10;;;;;;5051834;28;20037;-59
2022/04/12 11:23:45;;;;;;;6.60;4.30;;;18.20;60.20;;;;;;5041118;28;20009;-58
2022/04/12 11:26:45;;;;;;;8.77;4.43;;;19.20;59.60;;;;;;5033529;28;20030;-59
2022/04/12 11:29:12;;;;;;;8.88;4.25;;;20.30;57.50;;;;;;5042323;28;20492;-59
2022/04/12 11:31:51;;;;;;;6.30;4.10;;;20.20;52.10;;;;;;5035654;28;20033;-59
2022/04/12 11:34:18;;;;;;;7.70;4.20;;;20.70;52.20;;;;;;5040351;28;20032;-59
2022/04/12 11:36:52;;;;;;;6.75;3.90;;;20.90;50.90;;;;;;5052962;28;20033;-59
2022/04/12 11:39:22;;;;;;;10.95;4.57;;;21.00;47.30;;;;;;5053257;28;20036;-59
2022/04/12 11:41:48;;;;;;;11.23;4.68;;;21.40;46.50;;;;;;5033284;28;20068;-59
2022/04/12 11:44:14;;;;;;;8.05;4.60;;;21.30;46.30;;;;;;5032904;28;20018;-59
2022/04/12 11:46:40;;;;;;;6.63;3.42;;;21.40;48.00;;;;;;5052746;28;20033;-59
2022/04/12 11:49:12;;;;;;;6.93;4.05;;;21.90;47.50;;;;;;5039835;28;20064;-59
2022/04/12 11:51:40;;;;;;;5.60;4.13;;;23.20;46.00;;;;;;5051505;28;20682;-60
2022/04/12 11:54:26;;;;;;;5.68;4.25;;;23.50;43.90;;;;;;5043796;28;20040;-59
2022/04/12 11:57:05;;;;;;;7.22;3.65;;;23.70;43.10;;;;;;5050982;28;20024;-60
2022/04/12 11:59:52;;;;;;;9.30;3.85;;;24.50;42.90;;;;;;5044193;28;20036;-59
2022/04/12 12:02:23;;;;;;;8.23;3.80;;;23.40;39.50;;;;;;5043065;28;20039;-59
2022/04/12 12:04:51;;;;;;;8.93;3.83;;;23.60;41.30;;;;;;5048800;28;20021;-59
2022/04/12 12:07:17;;;;;;;7.68;3.72;;;23.90;42.40;;;;;;5032733;28;20061;-60
2022/04/12 12:10:05;;;;;;;5.97;4.38;;;25.40;40.90;;;;;;5032754;28;20052;-59
2022/04/12 12:12:30;;;;;;;6.30;3.97;;;24.40;40.50;;;;;;5032703;28;20025;-59
2022/04/12 12:14:56;;;;;;;6.32;3.97;;;23.60;41.20;;;;;;5032334;28;20401;-59
2022/04/12 12:17:25;;;;;;;6.45;3.72;;;23.90;40.20;;;;;;5032377;28;20079;-59
2022/04/12 12:19:51;;;;;;;4.70;3.03;;;24.10;40.60;;;;;;5033670;28;20076;-59
2022/04/12 12:22:17;;;;;;;9.02;4.63;;;24.80;40.70;;;;;;5049729;28;20479;-60
2022/04/12 12:24:52;;;;;;;6.30;4.40;;;24.50;39.10;;;;;;5034036;28;20026;-59
2022/04/12 12:27:33;;;;;;;7.25;3.90;;;25.00;38.50;;;;;;5033373;28;20396;-60
2022/04/12 12:30:14;;;;;;;6.40;3.83;;;24.70;38.30;;;;;;5043173;28;20109;-60
2022/04/12 12:32:43;;;;;;;10.07;4.47;;;24.40;38.50;;;;;;5051880;28;20028;-60
2022/04/12 12:35:11;;;;;;;9.43;4.57;;;25.20;39.10;;;;;;5051688;28;20109;-60
2022/04/12 12:37:38;;;;;;;8.50;3.83;;;25.50;38.50;;;;;;5041599;28;20115;-60
2022/04/12 12:40:22;;;;;;;6.25;4.75;;;25.30;37.20;;;;;;5045962;28;20104;-60
2022/04/12 12:42:50;;;;;;;6.30;4.57;;;25.60;36.30;;;;;;5052220;28;20496;-59
2022/04/12 12:45:18;;;;;;;7.90;4.45;;;24.80;37.10;;;;;;5044530;28;20346;-59
2022/04/12 12:47:46;;;;;;;9.48;5.13;;;25.00;38.70;;;;;;5030674;28;20564;-60
2022/04/12 12:50:17;;;;;;;8.43;4.10;;;24.80;39.80;;;;;;5031796;28;20748;-60
2022/04/12 12:52:46;;;;;;;12.18;4.85;;;25.90;38.00;;;;;;5032032;28;20025;-60
2022/04/12 12:55:14;;;;;;;7.95;4.03;;;25.80;36.70;;;;;;5038605;28;20022;-60
2022/04/12 12:57:47;;;;;;;9.50;5.53;;;26.20;36.70;;;;;;5041081;28;20362;-60